Latest Weather Observations for Penrith

IDN60901

Issued at 11:31 pm EST Sunday 1 May 2016 (issued every 10 minutes, with the page automatically refreshed every 10 minutes)

About weather observations | Map of Sydney area stations | Latest observations for Sydney area | Other Formats
Station Details ID: 067113 Name: PENRITH LAKES AWS Lat: -33.72 Lon: 150.68 Height: 24.7 m
Data from the previous 72 hours. | See also: Recent months at Penrith
Date/Time
EST
Tmp

°C
App
Tmp
°C
Dew
Point
°C
Rel
Hum
%
Delta-T

°C
Wind Press
QNH
hPa
Press
MSL
hPa
Rain
since
9 am
mm
Dir
 
Spd
km/h
Gust
km/h
Spd
kts
Gust
kts
01/11:30pm 17.3 16.0 7.6 53 4.9 ENE 4 6 2 3 - - 0.0
01/11:00pm 18.2 16.4 7.0 48 5.6 W 6 11 3 6 - - 0.0
01/10:30pm 18.7 15.8 8.1 50 5.4 WSW 13 19 7 10 - - 0.0
01/10:00pm 18.9 16.9 7.0 46 6.0 SSW 7 11 4 6 - - 0.0
01/09:30pm 20.4 18.9 8.4 46 6.3 W 6 13 3 7 - - 0.0
01/09:00pm 21.0 17.9 8.9 46 6.4 WNW 15 24 8 13 - - 0.0
01/08:30pm 21.9 18.0 9.4 45 6.7 W 20 33 11 18 - - 0.0
01/08:00pm 22.4 19.5 9.6 44 6.9 W 15 24 8 13 - - 0.0
01/07:30pm 23.1 19.0 8.8 40 7.6 W 20 30 11 16 - - 0.0
01/07:00pm 23.3 21.0 9.0 40 7.7 W 11 20 6 11 - - 0.0
01/06:30pm 24.4 20.9 8.8 37 8.4 W 17 24 9 13 - - 0.0
01/06:00pm 24.9 21.6 8.0 34 9.0 W 15 30 8 16 - - 0.0
01/05:30pm 25.3 22.4 8.3 34 9.1 WNW 13 26 7 14 - - 0.0
01/05:00pm 26.3 21.1 8.8 33 9.5 W 26 46 14 25 - - 0.0
01/04:50pm 26.8 21.3 9.2 33 9.7 WNW 28 43 15 23 - - 0.0
01/04:30pm 27.1 24.6 11.2 37 9.0 W 15 24 8 13 - - 0.0
01/04:00pm 27.6 25.2 12.8 40 8.7 W 17 30 9 16 - - 0.0
01/03:30pm 28.1 25.7 12.8 38 9.0 W 17 28 9 15 - - 0.0
01/03:00pm 28.8 27.3 13.1 38 9.3 WNW 13 26 7 14 - - 0.0
01/02:30pm 28.4 26.0 13.9 41 8.7 NW 19 30 10 16 - - 0.0
01/02:00pm 28.6 26.2 13.7 40 8.9 WNW 19 37 10 20 - - 0.0
01/01:30pm 27.9 27.0 15.9 48 7.4 N 15 22 8 12 - - 0.0
01/01:00pm 26.7 25.3 18.0 59 5.5 N 22 28 12 15 - - 0.0
01/12:30pm 24.7 24.0 18.6 69 3.9 N 20 26 11 14 - - 0.0
01/12:00pm 21.8 23.9 19.0 84 1.8 N 6 9 3 5 - - 0.0
01/11:30am 20.9 23.0 19.0 89 1.2 NNW 6 9 3 5 - - 0.0
01/11:00am 20.3 22.4 19.0 92 0.8 N 6 9 3 5 - - 0.0
01/10:30am 19.6 21.1 18.9 96 0.4 N 9 13 5 7 - - 0.0
01/10:00am 19.0 20.3 18.5 97 0.3 E 9 13 5 7 - - 0.0
01/09:30am 18.6 19.8 18.3 98 0.2 ENE 9 13 5 7 - - 0.0
01/09:00am 18.2 19.8 17.9 98 0.2 N 6 11 3 6 - - 0.6
01/08:30am 16.8 16.9 16.5 98 0.2 N 11 15 6 8 - - 0.6
01/08:00am 16.9 18.0 16.6 98 0.2 NNW 6 17 3 9 - - 0.6
01/07:30am 16.6 16.6 16.3 98 0.2 NNE 11 15 6 8 - - 0.4
01/07:00am 16.3 16.2 16.0 98 0.2 N 11 17 6 9 - - 0.4
01/06:30am 16.0 16.2 15.7 98 0.2 N 9 11 5 6 - - 0.2
01/06:00am 15.4 15.9 15.1 98 0.2 SSW 6 7 3 4 - - 0.2
01/05:30am 15.1 15.5 14.8 98 0.2 SE 6 7 3 4 - - 0.2
01/05:00am 14.8 15.9 14.5 98 0.2 SSW 2 9 1 5 - - 0.2
01/04:30am 14.5 15.5 14.2 98 0.2 SSE 2 4 1 2 - - 0.2
01/04:00am 14.5 14.7 14.2 98 0.2 S 6 7 3 4 - - 0.2
01/03:30am 14.5 15.1 14.2 98 0.2 S 4 4 2 2 - - 0.2
01/03:00am 14.9 15.6 14.6 98 0.2 S 4 6 2 3 - - 0.2
01/02:30am 15.1 15.9 14.8 98 0.2 S 4 6 2 3 - - 0.2
01/02:00am 15.8 17.6 15.5 98 0.2 CALM 0 0 0 0 - - 0.2
01/01:30am 15.6 17.3 15.3 98 0.2 CALM 0 0 0 0 - - 0.2
01/01:00am 15.9 17.7 15.6 98 0.2 CALM 0 0 0 0 - - 0.2
01/12:30am 15.8 16.9 15.5 98 0.2 NE 4 6 2 3 - - 0.2
01/12:00am 16.3 18.3 16.0 98 0.2 CALM 0 4 0 2 - - 0.2
 
Date/Time
EST
Tmp

°C
App
Tmp
°C
Dew
Point
°C
Rel
Hum
%
Delta-T

°C
Wind Press
QNH
hPa
Press
MSL
hPa
Rain
since
9 am
mm
Dir
 
Spd
km/h
Gust
km/h
Spd
kts
Gust
kts
30/11:30pm 16.8 18.6 16.5 98 0.2 ESE 2 9 1 5 - - 0.2
30/11:00pm 16.7 18.1 16.4 98 0.2 NW 4 6 2 3 - - 0.2
30/10:30pm 16.8 18.6 16.5 98 0.2 NNE 2 6 1 3 - - 0.2
30/10:00pm 17.6 20.1 17.3 98 0.2 CALM 0 0 0 0 - - 0.2
30/09:30pm 17.8 19.6 17.5 98 0.2 E 4 4 2 2 - - 0.2
30/09:00pm 18.3 20.7 18.0 98 0.2 WNW 2 4 1 2 - - 0.2
30/08:30pm 18.5 21.0 18.2 98 0.2 WNW 2 6 1 3 - - 0.2
30/08:00pm 18.9 21.1 18.4 97 0.3 NW 4 4 2 2 - - 0.2
30/07:30pm 19.2 22.3 18.7 97 0.3 CALM 0 2 0 1 - - 0.2
30/07:00pm 19.5 22.1 18.3 93 0.7 NNW 2 4 1 2 - - 0.2
30/06:30pm 20.4 23.2 18.9 91 0.9 NNW 2 4 1 2 - - 0.2
30/06:00pm 21.2 24.2 18.4 84 1.7 CALM 0 4 0 2 - - 0.2
30/05:30pm 21.9 24.8 18.1 79 2.4 CALM 0 0 0 0 - - 0.2
30/05:00pm 22.9 25.3 18.7 77 2.7 W 4 4 2 2 - - 0.2
30/04:30pm 23.1 25.7 18.4 75 3.0 WSW 2 4 1 2 - - 0.2
30/04:00pm 23.5 25.6 18.2 72 3.3 SW 4 6 2 3 - - 0.2
30/03:30pm 24.3 26.4 18.2 68 3.8 WNW 4 6 2 3 - - 0.2
30/03:00pm 24.0 25.8 18.2 70 3.6 NNW 6 7 3 4 - - 0.2
30/02:30pm 23.2 24.6 17.7 71 3.4 N 7 9 4 5 - - 0.2
30/02:00pm 22.9 24.3 17.8 73 3.2 NNW 7 9 4 5 - - 0.2
30/01:30pm 22.9 24.4 17.6 72 3.3 N 6 9 3 5 - - 0.2
30/01:00pm 22.5 24.7 18.3 77 2.6 N 4 6 2 3 - - 0.2
30/12:30pm 21.3 23.5 18.3 83 1.9 NW 4 6 2 3 - - 0.2
30/12:00pm 20.9 22.5 17.9 83 1.9 NNW 6 9 3 5 - - 0.2
30/11:30am 20.9 22.4 18.1 84 1.7 NW 7 9 4 5 - - 0.2
30/11:00am 20.6 22.3 18.0 85 1.6 NNW 6 7 3 4 - - 0.2
30/10:30am 20.1 22.3 17.5 85 1.6 N 2 6 1 3 - - 0.2
30/10:00am 19.1 21.5 17.9 93 0.7 SSE 2 2 1 1 - - 0.2
30/09:30am 18.4 21.0 17.6 95 0.5 CALM 0 0 0 0 - - 0.2
30/09:00am 18.1 20.7 17.6 97 0.3 CALM 0 2 0 1 - - 0.2
30/08:30am 17.7 19.1 17.4 98 0.2 NNE 6 6 3 3 - - 0.2
30/08:00am 17.4 18.5 17.1 98 0.2 NNE 7 11 4 6 - - 0.2
30/07:30am 17.3 18.4 17.0 98 0.2 N 7 9 4 5 - - 0.2
30/07:00am 17.3 18.9 16.8 97 0.3 NNW 4 4 2 2 - - 0.0
30/06:30am 17.2 18.8 16.9 98 0.2 NNW 4 6 2 3 - - 0.0
30/06:00am 17.2 19.6 16.9 98 0.2 CALM 0 0 0 0 - - 0.0
30/05:30am 17.2 19.6 16.9 98 0.2 CALM 0 0 0 0 - - 0.0
30/05:00am 17.4 19.8 16.9 97 0.3 CALM 0 0 0 0 - - 0.0
30/04:30am 17.5 19.5 17.0 97 0.3 WSW 2 6 1 3 - - 0.0
30/04:00am 17.5 18.6 17.0 97 0.3 NNW 7 9 4 5 - - 0.0
30/03:30am 17.3 18.9 16.8 97 0.3 N 4 6 2 3 - - 0.0
30/03:00am 17.4 18.8 16.4 94 0.6 N 4 6 2 3 - - 0.0
30/02:30am 17.5 19.7 16.4 93 0.7 CALM 0 2 0 1 - - 0.0
30/02:00am 17.6 19.4 16.5 93 0.7 SSW 2 4 1 2 - - 0.0
30/01:30am 17.2 18.6 16.4 95 0.5 S 4 4 2 2 - - 0.0
30/01:00am 17.2 18.2 16.4 95 0.5 S 6 7 3 4 - - 0.0
30/12:30am 17.5 19.7 16.5 94 0.6 CALM 0 0 0 0 - - 0.0
30/12:00am 17.5 19.0 16.7 95 0.5 SE 4 4 2 2 - - 0.0
 
Date/Time
EST
Tmp

°C
App
Tmp
°C
Dew
Point
°C
Rel
Hum
%
Delta-T

°C
Wind Press
QNH
hPa
Press
MSL
hPa
Rain
since
9 am
mm
Dir
 
Spd
km/h
Gust
km/h
Spd
kts
Gust
kts
29/11:30pm 17.6 19.9 16.8 95 0.5 CALM 0 0 0 0 - - 0.0
29/11:00pm 17.6 20.0 17.0 96 0.4 CALM 0 0 0 0 - - 0.0
29/10:30pm 17.3 18.9 16.8 97 0.3 SSE 4 6 2 3 - - 0.0
29/10:00pm 17.9 20.4 17.3 96 0.4 CALM 0 0 0 0 - - 0.0
29/09:30pm 17.5 19.1 16.9 96 0.4 SSE 4 6 2 3 - - 0.0
29/09:00pm 18.2 20.6 16.9 92 0.8 CALM 0 0 0 0 - - 0.0
29/08:30pm 18.4 20.5 17.2 93 0.7 WSW 2 4 1 2 - - 0.0
29/08:00pm 18.7 20.6 17.7 94 0.6 SW 4 4 2 2 - - 0.0
29/07:30pm 18.7 20.6 17.7 94 0.6 WNW 4 4 2 2 - - 0.0
29/07:00pm 19.6 22.5 18.1 91 0.9 CALM 0 0 0 0 - - 0.0
29/06:30pm 20.2 23.0 18.0 87 1.4 CALM 0 0 0 0 - - 0.0
29/06:00pm 20.5 22.8 16.7 79 2.3 CALM 0 0 0 0 - - 0.0
29/05:30pm 21.3 24.1 17.9 81 2.1 CALM 0 0 0 0 - - 0.0
29/05:00pm 22.0 24.5 17.2 74 3.0 CALM 0 0 0 0 - - 0.0
29/04:30pm 23.3 25.5 16.4 65 4.2 CALM 0 0 0 0 - - 0.0
29/04:00pm 23.7 25.6 15.7 61 4.8 CALM 0 0 0 0 - - 0.0
29/03:30pm 23.9 25.1 15.9 61 4.9 WNW 4 4 2 2 - - 0.0
29/03:00pm 23.9 25.2 16.2 62 4.7 NW 4 6 2 3 - - 0.0
29/02:30pm 24.1 24.7 15.9 60 5.0 N 7 9 4 5 - - 0.0
29/02:00pm 23.9 24.5 15.7 60 5.0 NNW 7 9 4 5 - - 0.0
29/01:30pm 23.0 24.0 15.3 62 4.6 NNW 4 6 2 3 - - 0.0
29/01:00pm 22.8 23.5 14.6 60 4.8 NNW 4 6 2 3 - - 0.0
29/12:30pm 23.0 24.3 15.1 61 4.7 N 2 6 1 3 - - 0.0
29/12:00pm 22.1 23.0 15.2 65 4.1 N 4 9 2 5 - - 0.0
29/11:30am 21.3 22.6 15.2 68 3.6 N 2 6 1 3 - - 0.0
29/11:00am 20.6 21.4 14.7 69 3.5 NW 4 6 2 3 - - 0.0
29/10:30am 20.6 21.5 15.2 71 3.2 W 4 6 2 3 - - 0.0
29/10:00am 20.9 21.9 15.4 71 3.3 ESE 4 6 2 3 - - 0.0
29/09:30am 20.0 21.6 15.0 73 2.9 CALM 0 4 0 2 - - 0.0
29/09:00am 18.4 20.1 15.1 81 1.9 CALM 0 2 0 1 - - 0.0
29/08:30am 16.1 17.9 15.5 96 0.3 CALM 0 0 0 0 - - 0.0
29/08:00am 15.2 16.8 14.9 98 0.2 CALM 0 0 0 0 - - 0.0
29/07:30am 13.5 14.1 13.2 98 0.2 N 2 2 1 1 - - 0.0
29/07:00am 12.4 12.3 12.1 98 0.2 NNE 4 6 2 3 - - 0.0
29/06:30am 12.2 12.8 11.9 98 0.2 CALM 0 2 0 1 - - 0.0
29/06:00am 12.4 12.3 12.1 98 0.2 SSW 4 4 2 2 - - 0.0
29/05:30am 12.8 13.6 12.5 98 0.2 CALM 0 0 0 0 - - 0.0
29/05:00am 13.0 13.8 12.7 98 0.2 CALM 0 0 0 0 - - 0.0
29/04:30am 13.6 14.6 13.3 98 0.2 CALM 0 0 0 0 - - 0.0
29/04:00am 13.5 14.5 13.2 98 0.2 CALM 0 0 0 0 - - 0.0
29/03:30am 13.6 14.3 13.3 98 0.2 SSE 2 4 1 2 - - 0.0
29/03:00am 13.9 14.7 13.6 98 0.2 SSE 2 4 1 2 - - 0.0
29/02:30am 14.3 15.2 14.0 98 0.2 SSE 2 4 1 2 - - 0.0
29/02:00am 14.6 15.6 14.3 98 0.2 S 2 4 1 2 - - 0.0
29/01:30am 14.7 16.1 14.4 98 0.2 CALM 0 0 0 0 - - 0.0
29/01:00am 15.0 16.1 14.5 97 0.3 S 2 4 1 2 - - 0.0
29/12:30am 15.1 15.7 14.3 95 0.5 S 4 4 2 2 - - 0.0
29/12:00am 15.7 16.1 14.7 94 0.6 S 6 6 3 3 - - 0.0

Latest Capital City Observations: Canberra | Sydney | Melbourne | Brisbane | Adelaide | Perth | Hobart | Darwin

Other Formats:

Comma delimited format used in spreadsheet applications
http://www.bom.gov.au/fwo/IDN60901/IDN60901.94763.axf

JavaScript Object Notation format (JSON) in row-major order
http://www.bom.gov.au/fwo/IDN60901/IDN60901.94763.json